Time;durP1;ratioP1;P1;durP2;ratioP2;P2;SDS_P1;SDS_P2;PMS_P1;PMS_P2;Temp;Humidity;BMP_temperature;BMP_pressure;BME280_temperature;BME280_humidity;BME280_pressure;Samples;Min_cycle;Max_cycle;Signal;HPM_P1;HPM_P2
2022/04/15 00:01:31;;;;;;;32.10;18.97;;;;;;;11.12;73.87;94379.41;5033437;28;20061;-51
2022/04/15 00:03:58;;;;;;;37.72;20.88;;;;;;;11.12;73.82;94381.38;5032488;28;20045;-46
2022/04/15 00:06:25;;;;;;;16.27;9.38;;;;;;;11.09;74.09;94391.22;5033381;28;20048;-46
2022/04/15 00:08:52;;;;;;;13.20;7.03;;;;;;;11.12;74.23;94395.09;5033640;28;20041;-48
2022/04/15 00:11:18;;;;;;;12.25;7.53;;;;;;;11.05;74.33;94395.97;5033263;28;20051;-46
2022/04/15 00:13:46;;;;;;;13.80;7.60;;;;;;;10.96;74.81;94403.88;5033280;28;20046;-52
2022/04/15 00:16:13;;;;;;;16.45;8.38;;;;;;;10.99;75.05;94403.84;5032784;28;20119;-46
2022/04/15 00:18:41;;;;;;;16.00;8.40;;;;;;;11.06;75.05;94394.75;5028797;28;20055;-51
2022/04/15 00:21:08;;;;;;;17.02;8.85;;;;;;;11.15;74.79;94400.56;5024444;28;20053;-47
2022/04/15 00:23:35;;;;;;;14.32;8.43;;;;;;;11.10;74.84;94398.25;5032473;28;20242;-46
2022/04/15 00:26:03;;;;;;;14.83;7.93;;;;;;;11.09;75.00;94395.94;5033550;28;20046;-47
2022/04/15 00:28:31;;;;;;;16.17;8.23;;;;;;;11.16;74.67;94402.13;5032296;28;20064;-51
2022/04/15 00:30:58;;;;;;;15.35;8.13;;;;;;;11.23;74.25;94397.72;5031992;28;20037;-55
2022/04/15 00:33:25;;;;;;;14.88;8.30;;;;;;;11.25;74.51;94403.59;5032775;28;20483;-55
2022/04/15 00:35:52;;;;;;;13.40;8.23;;;;;;;11.16;74.53;94396.63;5032343;28;20102;-54
2022/04/15 00:38:19;;;;;;;15.10;8.00;;;;;;;11.07;75.00;94421.06;5032768;28;20114;-53
2022/04/15 00:40:45;;;;;;;17.23;8.70;;;;;;;10.66;76.33;94401.78;5031598;28;20045;-48
2022/04/15 00:43:12;;;;;;;17.98;8.80;;;;;;;10.47;77.38;94403.09;5031130;28;20052;-50
2022/04/15 00:45:44;;;;;;;16.17;8.90;;;;;;;10.75;76.32;94402.09;5031464;28;20041;-50
2022/04/15 00:48:14;;;;;;;15.25;9.20;;;;;;;10.87;76.33;94409.06;5032473;28;20041;-46
2022/04/15 00:50:41;;;;;;;15.90;8.60;;;;;;;10.98;76.07;94407.78;5032905;28;20048;-50
2022/04/15 00:53:09;;;;;;;16.02;8.75;;;;;;;11.12;75.62;94400.59;5033099;28;20061;-49
2022/04/15 00:55:38;;;;;;;15.70;8.32;;;;;;;11.13;75.42;94405.69;5032040;28;20727;-47
2022/04/15 00:58:06;;;;;;;13.18;8.38;;;;;;;11.22;75.12;94404.44;5032500;28;20044;-51
2022/04/15 01:00:35;;;;;;;13.75;8.35;;;;;;;11.25;74.98;94404.41;5032430;28;20056;-46
2022/04/15 01:03:04;;;;;;;12.60;7.50;;;;;;;11.30;74.58;94409.44;5032808;28;20041;-48
2022/04/15 01:05:33;;;;;;;31.10;19.10;;;;;;;11.23;75.22;94406.78;5032141;28;20038;-53
2022/04/15 01:08:03;;;;;;;22.33;12.10;;;;;;;11.26;74.98;94411.44;5032553;28;20044;-47
2022/04/15 01:10:35;;;;;;;14.95;8.57;;;;;;;11.01;75.60;94403.44;5030680;28;20106;-52
2022/04/15 01:13:05;;;;;;;15.15;8.35;;;;;;;10.13;78.90;94414.66;5032390;28;20068;-49
2022/04/15 01:15:52;;;;;;;14.57;8.53;;;;;;;10.27;78.46;94408.28;5031643;28;20049;-50
2022/04/15 01:18:19;;;;;;;15.10;8.70;;;;;;;10.48;77.62;94407.41;5031870;28;20052;-46
2022/04/15 01:20:51;;;;;;;13.95;8.45;;;;;;;10.52;77.69;94408.16;5031813;28;20054;-54
2022/04/15 01:23:18;;;;;;;17.00;8.77;;;;;;;10.53;77.82;94405.00;5032095;28;20095;-49
2022/04/15 01:25:45;;;;;;;18.02;8.85;;;;;;;10.61;77.79;94408.47;5032127;28;20498;-49
2022/04/15 01:28:16;;;;;;;19.23;8.80;;;;;;;10.69;77.32;94398.22;5031463;28;20075;-50
2022/04/15 01:30:45;;;;;;;17.48;8.95;;;;;;;10.66;77.25;94404.53;5032005;28;20041;-50
2022/04/15 01:33:12;;;;;;;53.17;30.27;;;;;;;10.70;77.19;94408.78;5031738;28;20053;-47
2022/04/15 01:35:40;;;;;;;21.17;11.82;;;;;;;10.74;76.83;94395.81;5031926;28;20037;-48
2022/04/15 01:38:12;;;;;;;18.52;9.40;;;;;;;10.75;76.62;94405.63;5032146;28;20046;-46
2022/04/15 01:40:39;;;;;;;16.07;7.80;;;;;;;10.74;76.53;94403.28;5031160;28;20330;-47
2022/04/15 01:43:06;;;;;;;17.50;8.38;;;;;;;10.52;77.44;94397.16;5026836;28;20505;-49
2022/04/15 01:45:33;;;;;;;17.83;9.02;;;;;;;10.49;77.22;94400.75;5020395;28;20467;-47
2022/04/15 01:48:03;;;;;;;16.98;8.63;;;;;;;10.39;77.34;94397.66;5011033;28;20046;-47
2022/04/15 01:50:30;;;;;;;15.35;8.05;;;;;;;10.34;78.16;94405.53;5011286;28;20050;-46
2022/04/15 01:52:58;;;;;;;13.10;7.40;;;;;;;10.27;78.30;94398.09;5011864;28;20103;-46
2022/04/15 01:55:25;;;;;;;13.23;7.38;;;;;;;10.19;78.10;94391.09;5011423;28;20147;-50
2022/04/15 01:57:53;;;;;;;14.85;7.78;;;;;;;10.06;78.55;94393.53;5010452;28;20086;-47
2022/04/15 02:00:19;;;;;;;14.43;7.35;;;;;;;10.13;78.48;94406.41;5011354;28;20056;-49
2022/04/15 02:02:46;;;;;;;13.40;7.10;;;;;;;10.13;78.07;94396.22;5011665;28;20053;-51
2022/04/15 02:05:13;;;;;;;12.90;6.73;;;;;;;10.16;77.60;94400.13;5011228;28;20045;-49
2022/04/15 02:07:39;;;;;;;11.98;6.53;;;;;;;10.15;77.85;94390.34;5020357;28;20052;-49
2022/04/15 02:10:06;;;;;;;11.57;6.25;;;;;;;10.18;77.36;94390.31;5031398;28;20147;-47
2022/04/15 02:12:33;;;;;;;10.50;6.00;;;;;;;10.12;77.27;94385.66;5030873;28;20376;-52
2022/04/15 02:15:01;;;;;;;11.38;6.45;;;;;;;9.97;77.53;94393.19;5031543;28;20045;-49
2022/04/15 02:17:27;;;;;;;14.30;7.97;;;;;;;9.76;79.16;94397.59;5031027;28;20068;-49
2022/04/15 02:19:54;;;;;;;14.43;8.35;;;;;;;9.76;79.75;94394.84;5029698;28;20045;-46
2022/04/15 02:22:21;;;;;;;15.57;8.25;;;;;;;9.85;79.88;94397.16;5030710;28;20045;-46
2022/04/15 02:24:48;;;;;;;13.45;8.30;;;;;;;9.87;79.96;94400.28;5031176;28;20057;-48
2022/04/15 02:27:14;;;;;;;14.35;7.93;;;;;;;9.89;80.07;94406.13;5029263;28;20494;-45
2022/04/15 02:29:41;;;;;;;12.77;6.50;;;;;;;9.86;78.94;94397.91;5030973;28;20041;-52
2022/04/15 02:32:08;;;;;;;13.35;6.10;;;;;;;9.93;78.26;94398.69;5031310;28;20402;-47
2022/04/15 02:34:35;;;;;;;11.68;6.13;;;;;;;9.97;78.07;94402.19;5030086;28;20851;-45
2022/04/15 02:37:02;;;;;;;12.27;6.63;;;;;;;9.99;78.24;94410.00;5031113;28;20041;-46
2022/04/15 02:39:29;;;;;;;15.73;8.02;;;;;;;9.96;78.93;94405.31;5030484;28;20052;-53
2022/04/15 02:41:56;;;;;;;13.97;7.37;;;;;;;9.98;78.73;94406.50;5030931;28;20053;-48
2022/04/15 02:44:23;;;;;;;12.25;6.47;;;;;;;10.06;78.39;94410.00;5028249;28;20034;-51
2022/04/15 02:46:52;;;;;;;11.20;5.90;;;;;;;10.09;77.47;94402.91;5014787;28;20495;-51
2022/04/15 02:49:19;;;;;;;10.00;5.85;;;;;;;10.03;77.51;94404.50;5010375;28;20042;-47
2022/04/15 02:51:46;;;;;;;11.40;6.10;;;;;;;9.97;77.95;94406.88;5010831;28;20056;-46
2022/04/15 02:54:12;;;;;;;11.93;6.17;;;;;;;10.05;78.48;94404.91;5010418;28;20058;-45
2022/04/15 02:56:39;;;;;;;11.18;6.93;;;;;;;10.15;77.81;94406.78;5010757;28;20050;-51
2022/04/15 02:59:06;;;;;;;14.98;6.68;;;;;;;10.23;78.00;94404.78;5010526;28;20046;-47
2022/04/15 03:01:33;;;;;;;10.13;6.50;;;;;;;10.23;77.84;94407.53;5010476;28;20125;-51
2022/04/15 03:04:00;;;;;;;12.20;6.93;;;;;;;10.16;77.86;94408.34;5010970;28;20042;-48
2022/04/15 03:06:26;;;;;;;12.97;6.00;;;;;;;9.95;78.44;94409.25;5010329;28;20080;-45
2022/04/15 03:08:55;;;;;;;9.57;5.40;;;;;;;9.84;78.65;94403.81;5029183;28;20037;-50
2022/04/15 03:11:21;;;;;;;11.05;5.70;;;;;;;9.98;79.12;94403.75;5029883;28;20072;-46
2022/04/15 03:13:48;;;;;;;10.68;6.05;;;;;;;10.05;78.99;94402.16;5030530;28;20328;-52
2022/04/15 03:16:15;;;;;;;13.50;6.30;;;;;;;10.15;78.85;94406.78;5030246;28;20053;-49
2022/04/15 03:18:42;;;;;;;13.40;7.33;;;;;;;9.97;78.74;94407.66;5030563;28;20099;-51
2022/04/15 03:21:10;;;;;;;13.65;7.57;;;;;;;10.00;78.70;94406.88;5030056;28;20118;-48
2022/04/15 03:23:37;;;;;;;13.93;7.20;;;;;;;10.15;78.26;94398.56;5029569;28;20744;-46
2022/04/15 03:26:04;;;;;;;13.15;7.47;;;;;;;10.03;78.84;94401.78;5029051;28;20486;-47
2022/04/15 03:28:31;;;;;;;12.85;7.30;;;;;;;10.00;78.71;94406.88;5029570;28;20397;-52
2022/04/15 03:30:57;;;;;;;13.67;7.70;;;;;;;10.08;78.59;94404.06;5030222;28;20033;-50
2022/04/15 03:33:24;;;;;;;13.00;7.07;;;;;;;10.13;79.01;94411.91;5029775;28;20406;-45
2022/04/15 03:35:51;;;;;;;16.13;7.97;;;;;;;10.13;80.03;94417.38;5030266;28;20067;-46
2022/04/15 03:38:18;;;;;;;19.33;8.25;;;;;;;10.03;80.96;94410.78;5029639;28;20056;-48
2022/04/15 03:40:44;;;;;;;14.48;7.85;;;;;;;10.08;81.38;94412.31;5030095;28;20110;-45
2022/04/15 03:43:11;;;;;;;14.30;7.97;;;;;;;10.09;81.50;94417.41;5029415;28;20049;-45
2022/04/15 03:45:38;;;;;;;13.07;8.10;;;;;;;10.08;81.13;94418.59;5021518;28;20048;-52
2022/04/15 03:48:04;;;;;;;19.45;7.70;;;;;;;10.08;81.57;94418.59;5010312;28;20247;-46
2022/04/15 03:50:31;;;;;;;12.70;7.78;;;;;;;10.11;81.24;94415.03;5009732;28;20046;-45
2022/04/15 03:52:58;;;;;;;14.15;8.10;;;;;;;10.11;81.29;94427.97;5009973;28;20046;-49
2022/04/15 03:55:25;;;;;;;14.47;7.90;;;;;;;10.06;81.43;94420.97;5009909;28;20107;-45
2022/04/15 03:57:52;;;;;;;15.40;7.95;;;;;;;9.98;82.32;94413.94;5010231;28;20034;-49
2022/04/15 04:00:21;;;;;;;30.38;17.23;;;;;;;10.04;82.02;94415.09;5008639;28;20046;-46
2022/04/15 04:02:51;;;;;;;15.43;8.18;;;;;;;10.01;81.83;94418.63;5010075;28;20030;-47
2022/04/15 04:05:18;;;;;;;14.52;7.80;;;;;;;10.00;82.01;94412.34;5009399;28;20054;-46
2022/04/15 04:07:45;;;;;;;13.17;8.13;;;;;;;9.98;82.05;94411.22;5019336;28;20398;-46
2022/04/15 04:10:13;;;;;;;13.13;8.00;;;;;;;10.05;81.79;94424.09;5030324;28;20471;-45
2022/04/15 04:12:45;;;;;;;15.00;7.93;;;;;;;10.03;82.05;94426.44;5032522;28;20056;-45
2022/04/15 04:15:12;;;;;;;15.05;8.40;;;;;;;9.94;82.30;94430.41;5033355;28;20050;-49
2022/04/15 04:17:40;;;;;;;13.57;8.30;;;;;;;10.02;82.44;94422.13;5033821;28;20053;-47
2022/04/15 04:20:09;;;;;;;14.77;8.23;;;;;;;10.00;82.10;94426.06;5033164;28;20053;-50
2022/04/15 04:22:37;;;;;;;13.50;8.15;;;;;;;9.86;82.96;94433.56;5032544;28;21503;-46
2022/04/15 04:25:08;;;;;;;12.98;8.02;;;;;;;9.91;82.95;94425.72;5033452;28;20059;-47
2022/04/15 04:27:39;;;;;;;13.60;8.07;;;;;;;9.89;83.30;94430.81;5032483;28;20629;-47
2022/04/15 04:30:09;;;;;;;13.73;7.90;;;;;;;9.99;82.61;94432.72;5032986;28;20046;-49
2022/04/15 04:32:36;;;;;;;14.57;8.40;;;;;;;9.94;82.39;94424.13;5031083;28;20237;-46
2022/04/15 04:35:03;;;;;;;14.07;8.25;;;;;;;9.90;83.04;94434.31;5033089;28;20046;-52
2022/04/15 04:37:30;;;;;;;13.95;8.85;;;;;;;9.82;83.32;94433.59;5031349;28;20056;-46
2022/04/15 04:39:57;;;;;;;14.75;8.10;;;;;;;9.91;82.42;94436.69;5033085;28;20087;-55
2022/04/15 04:42:25;;;;;;;15.15;8.63;;;;;;;9.89;82.56;94433.56;5032511;28;20056;-47
2022/04/15 04:44:52;;;;;;;15.10;8.93;;;;;;;9.97;82.37;94434.31;5023225;28;20052;-49
2022/04/15 04:47:20;;;;;;;16.30;9.00;;;;;;;9.90;82.68;94439.81;5012359;28;20473;-50
2022/04/15 04:49:48;;;;;;;14.60;8.60;;;;;;;9.83;82.81;94440.63;5013145;28;20052;-46
2022/04/15 04:52:19;;;;;;;13.30;8.20;;;;;;;9.86;82.39;94433.56;5012501;28;20484;-50
2022/04/15 04:54:46;;;;;;;14.98;8.27;;;;;;;9.85;82.42;94440.25;5011674;28;20101;-51
2022/04/15 04:57:12;;;;;;;14.53;8.73;;;;;;;9.81;82.07;94442.97;5012579;28;20046;-48
2022/04/15 04:59:39;;;;;;;13.18;7.85;;;;;;;9.84;82.24;94441.41;5012778;28;20044;-50
2022/04/15 05:02:08;;;;;;;17.30;8.43;;;;;;;9.93;82.13;94450.00;5011725;28;20053;-49
2022/04/15 05:04:35;;;;;;;13.40;8.23;;;;;;;9.97;81.67;94448.78;5012138;28;20058;-52
2022/04/15 05:07:03;;;;;;;14.38;8.00;;;;;;;10.09;81.12;94446.78;5015203;28;20041;-48
2022/04/15 05:09:30;;;;;;;13.73;8.30;;;;;;;10.09;80.88;94453.06;5032080;28;20050;-52
2022/04/15 05:11:56;;;;;;;15.20;8.88;;;;;;;10.20;80.55;94453.78;5032372;28;20045;-47
2022/04/15 05:14:23;;;;;;;16.95;9.68;;;;;;;10.25;80.73;94454.56;5030836;28;20041;-47
2022/04/15 05:16:50;;;;;;;23.98;13.20;;;;;;;10.17;81.07;94459.28;5032491;28;20047;-45
2022/04/15 05:19:16;;;;;;;20.95;11.13;;;;;;;10.24;80.62;94466.69;5030214;28;20053;-51
2022/04/15 05:21:43;;;;;;;17.20;9.50;;;;;;;10.32;80.51;94465.50;5031004;28;20055;-52
2022/04/15 05:24:10;;;;;;;17.85;9.70;;;;;;;10.29;80.36;94463.53;5032210;28;20071;-47
2022/04/15 05:26:37;;;;;;;15.15;8.68;;;;;;;10.36;80.66;94461.56;5031280;28;20402;-53
2022/04/15 05:29:04;;;;;;;17.17;8.95;;;;;;;10.30;80.14;94465.91;5032307;28;20049;-46
2022/04/15 05:31:31;;;;;;;17.17;8.43;;;;;;;10.15;81.36;94467.13;5031530;28;20060;-45
2022/04/15 05:33:57;;;;;;;15.30;8.27;;;;;;;10.22;81.17;94461.59;5032206;28;20041;-46
2022/04/15 05:36:24;;;;;;;15.32;8.82;;;;;;;10.30;80.95;94468.66;5031472;28;20053;-53
2022/04/15 05:38:51;;;;;;;15.05;8.77;;;;;;;10.28;80.75;94459.22;5032160;28;20049;-52
2022/04/15 05:41:18;;;;;;;16.20;8.70;;;;;;;10.46;80.73;94467.38;5031538;28;20410;-46
2022/04/15 05:43:46;;;;;;;16.98;9.30;;;;;;;10.56;80.07;94475.56;5031964;28;20049;-49
2022/04/15 05:46:13;;;;;;;15.43;9.73;;;;;;;10.36;80.19;94469.81;5031542;28;20044;-46
2022/04/15 05:48:40;;;;;;;14.23;8.40;;;;;;;10.15;81.05;94469.88;5030315;28;20037;-49
2022/04/15 05:51:06;;;;;;;17.52;11.23;;;;;;;10.28;81.06;94471.00;5030385;28;20413;-50
2022/04/15 05:53:33;;;;;;;22.35;13.48;;;;;;;10.57;80.14;94479.09;5031497;28;20044;-50
2022/04/15 05:56:00;;;;;;;14.63;8.80;;;;;;;10.72;79.11;94488.00;5031757;28;20076;-50
2022/04/15 05:58:28;;;;;;;14.83;8.60;;;;;;;10.77;79.29;94482.88;5031267;28;20041;-49
2022/04/15 06:00:55;;;;;;;13.77;8.68;;;;;;;11.02;78.65;94486.63;5031784;28;20041;-48
2022/04/15 06:03:22;;;;;;;13.40;8.55;;;;;;;11.10;78.42;94488.88;5031284;28;20045;-49
2022/04/15 06:05:51;;;;;;;16.67;9.13;;;;;;;10.82;79.46;94495.38;5031462;28;20437;-50
2022/04/15 06:08:18;;;;;;;16.95;9.40;;;;;;;10.45;80.85;94496.78;5030869;28;20057;-55
2022/04/15 06:10:45;;;;;;;14.57;9.03;;;;;;;10.72;80.26;94496.22;5031254;28;20163;-50
2022/04/15 06:13:22;;;;;;;14.00;8.75;;;;;;;11.09;78.95;94495.59;5029696;28;20045;-46
2022/04/15 06:15:53;;;;;;;16.70;9.00;;;;;;;11.31;77.94;94495.41;5031448;28;20102;-50
2022/04/15 06:18:20;;;;;;;18.83;9.60;;;;;;;11.39;77.14;94505.16;5030581;28;20057;-52
2022/04/15 06:20:48;;;;;;;18.33;9.02;;;;;;;11.57;76.95;94500.28;5025719;28;20061;-49
2022/04/15 06:23:15;;;;;;;16.37;9.37;;;;;;;11.68;76.62;94504.88;5022058;28;20047;-51
2022/04/15 06:25:43;;;;;;;17.40;10.18;;;;;;;11.46;76.83;94504.31;5031107;28;20049;-50
2022/04/15 06:28:10;;;;;;;16.27;10.30;;;;;;;11.27;77.41;94500.94;5030906;28;20045;-48
2022/04/15 06:30:38;;;;;;;18.17;10.10;;;;;;;11.39;77.23;94510.66;5030209;28;20806;-49
2022/04/15 06:33:06;;;;;;;15.38;9.52;;;;;;;11.54;76.86;94500.28;5028902;28;20042;-46
2022/04/15 06:35:33;;;;;;;15.13;8.93;;;;;;;11.72;76.19;94500.91;5030380;28;20037;-47
2022/04/15 06:38:00;;;;;;;17.25;9.65;;;;;;;11.86;75.44;94510.97;5030857;28;20115;-47
2022/04/15 06:40:28;;;;;;;14.57;9.88;;;;;;;11.90;75.45;94510.97;5030243;28;20076;-47
2022/04/15 06:42:55;;;;;;;17.50;10.20;;;;;;;12.03;75.03;94505.72;5030396;28;20045;-49
2022/04/15 06:45:23;;;;;;;15.60;9.57;;;;;;;12.18;74.77;94510.63;5030185;28;20041;-48
2022/04/15 06:47:50;;;;;;;16.90;10.13;;;;;;;12.26;74.37;94508.59;5030921;28;20038;-48
2022/04/15 06:50:20;;;;;;;15.98;9.77;;;;;;;12.46;74.26;94511.47;5028958;28;20045;-48
2022/04/15 06:52:47;;;;;;;16.25;10.30;;;;;;;12.60;73.28;94516.03;5030510;28;20423;-51
2022/04/15 06:55:14;;;;;;;16.80;9.77;;;;;;;12.97;71.49;94517.84;5030488;28;20102;-47
2022/04/15 06:57:41;;;;;;;17.95;10.10;;;;;;;13.38;70.25;94508.59;5029305;28;20045;-47
2022/04/15 07:00:09;;;;;;;17.20;10.07;;;;;;;13.19;70.39;94520.28;5030461;28;20049;-48
2022/04/15 07:02:36;;;;;;;15.45;10.02;;;;;;;13.87;67.97;94516.41;5029738;28;20378;-53
2022/04/15 07:05:05;;;;;;;15.82;9.65;;;;;;;13.55;69.28;94515.00;5030441;28;20064;-49
2022/04/15 07:07:32;;;;;;;17.15;10.65;;;;;;;13.70;68.48;94517.50;5029741;28;20045;-52
2022/04/15 07:09:59;;;;;;;20.10;11.88;;;;;;;14.38;66.26;94517.00;5030629;28;20040;-48
2022/04/15 07:12:26;;;;;;;17.53;11.73;;;;;;;14.49;66.06;94518.78;5030018;28;20049;-50
2022/04/15 07:14:52;;;;;;;19.42;12.38;;;;;;;13.35;69.61;94530.69;5030367;28;20048;-53
2022/04/15 07:17:19;;;;;;;17.38;11.00;;;;;;;14.13;67.41;94517.50;5029870;28;20060;-47
2022/04/15 07:19:46;;;;;;;16.83;11.75;;;;;;;15.08;64.24;94522.66;5030008;28;20099;-48
2022/04/15 07:22:17;;;;;;;17.20;11.63;;;;;;;16.20;60.63;94515.94;5016401;28;20054;-54
2022/04/15 07:24:44;;;;;;;15.60;10.43;;;;;;;16.77;57.53;94516.31;5010625;28;20072;-49
2022/04/15 07:27:11;;;;;;;17.58;10.75;;;;;;;15.54;60.86;94521.56;5010034;28;20128;-53
2022/04/15 07:29:38;;;;;;;16.88;10.88;;;;;;;16.49;58.46;94504.81;5026050;28;20413;-50
2022/04/15 07:32:05;;;;;;;18.00;11.18;;;;;;;16.77;56.84;94508.75;5030131;28;20486;-53
2022/04/15 07:34:32;;;;;;;15.52;10.63;;;;;;;17.16;56.27;94515.16;5029788;28;20120;-50
2022/04/15 07:37:03;;;;;;;15.30;10.30;;;;;;;18.12;53.56;94506.88;5030073;28;20529;-47
2022/04/15 07:39:34;;;;;;;15.18;10.35;;;;;;;17.87;52.89;94511.31;5029876;28;20056;-52
2022/04/15 07:42:00;;;;;;;13.15;9.32;;;;;;;19.24;50.20;94507.16;5030271;28;20126;-55
2022/04/15 07:44:33;;;;;;;13.27;9.95;;;;;;;20.77;46.10;94500.41;5029518;28;20042;-48
2022/04/15 07:47:00;;;;;;;16.17;10.05;;;;;;;21.64;44.71;94509.09;5033812;28;20038;-49
2022/04/15 07:49:27;;;;;;;15.60;11.13;;;;;;;18.00;51.77;94514.03;5033482;28;20127;-55
2022/04/15 07:51:54;;;;;;;15.80;10.90;;;;;;;19.05;49.47;94514.63;5033583;28;20053;-51
2022/04/15 07:54:20;;;;;;;14.57;10.30;;;;;;;20.25;47.01;94503.81;5033335;28;20049;-52
2022/04/15 07:56:47;;;;;;;14.70;10.07;;;;;;;21.16;43.93;94512.50;5032483;28;20046;-52
2022/04/15 07:59:14;;;;;;;12.63;9.57;;;;;;;21.32;44.42;94506.56;5033117;28;20046;-52
2022/04/15 08:01:41;;;;;;;15.07;9.80;;;;;;;21.10;44.94;94508.81;5033622;28;20054;-51
2022/04/15 08:04:08;;;;;;;15.82;9.60;;;;;;;21.07;45.22;94512.56;5032454;28;20049;-54
2022/04/15 08:06:34;;;;;;;12.60;9.82;;;;;;;21.33;43.93;94505.31;5033374;28;20505;-47
2022/04/15 08:09:01;;;;;;;14.35;9.27;;;;;;;21.18;44.84;94509.25;5032572;28;20047;-52
2022/04/15 08:11:28;;;;;;;13.80;9.75;;;;;;;21.54;43.24;94505.56;5033070;28;20057;-51
2022/04/15 08:13:56;;;;;;;14.13;10.20;;;;;;;21.10;44.13;94517.97;5033562;28;20083;-50
2022/04/15 08:16:24;;;;;;;12.85;9.77;;;;;;;23.21;40.11;94505.81;5033039;28;20114;-51
2022/04/15 08:18:52;;;;;;;15.75;9.73;;;;;;;23.83;38.99;94514.41;5033152;28;20049;-51
2022/04/15 08:21:19;;;;;;;10.75;8.40;;;;;;;22.83;40.62;94509.47;5032756;28;20041;-55
2022/04/15 08:23:47;;;;;;;12.82;9.02;;;;;;;21.67;41.28;94519.31;5031926;28;20060;-51
2022/04/15 08:26:13;;;;;;;10.23;7.57;;;;;;;24.53;37.15;94510.75;5033102;28;20033;-53
2022/04/15 08:28:40;;;;;;;11.80;8.07;;;;;;;25.36;34.32;94514.13;5033122;28;20060;-53
2022/04/15 08:31:08;;;;;;;9.88;8.13;;;;;;;26.10;33.17;94507.72;5033266;28;20049;-49
2022/04/15 08:33:35;;;;;;;9.43;6.10;;;;;;;27.96;30.08;94504.50;5031606;28;20045;-49
2022/04/15 08:36:03;;;;;;;8.43;5.53;;;;;;;26.98;30.36;94510.59;5023631;28;20034;-51
2022/04/15 08:38:29;;;;;;;9.20;5.60;;;;;;;27.09;28.84;94507.81;5012797;28;20046;-53
2022/04/15 08:40:58;;;;;;;7.43;5.40;;;;;;;26.83;30.49;94512.88;5013159;28;20049;-54
2022/04/15 08:43:26;;;;;;;6.47;4.95;;;;;;;26.33;29.93;94513.47;5012547;28;20045;-49
2022/04/15 08:45:53;;;;;;;6.30;4.93;;;;;;;25.62;31.23;94514.81;5013165;28;20042;-49
2022/04/15 08:48:21;;;;;;;9.98;5.40;;;;;;;26.79;29.22;94509.53;5012796;28;20060;-53
2022/04/15 08:50:50;;;;;;;6.70;4.83;;;;;;;27.85;27.22;94510.91;5012916;28;20483;-54
2022/04/15 08:53:20;;;;;;;6.78;4.80;;;;;;;26.63;28.99;94511.81;5012580;28;20050;-55
2022/04/15 08:55:47;;;;;;;8.95;6.40;;;;;;;23.66;34.76;94511.31;5011344;28;20057;-51
2022/04/15 08:58:14;;;;;;;7.60;6.22;;;;;;;23.47;35.16;94519.22;5012532;28;20058;-50
2022/04/15 09:00:41;;;;;;;7.88;6.10;;;;;;;26.05;31.13;94514.09;5012777;28;20042;-50
2022/04/15 09:03:08;;;;;;;8.07;5.70;;;;;;;26.75;30.54;94514.66;5013086;28;20046;-48
2022/04/15 09:05:35;;;;;;;9.90;7.25;;;;;;;20.43;41.72;94516.19;5012187;28;20053;-47
2022/04/15 09:08:10;;;;;;;9.57;7.32;;;;;;;18.50;45.22;94520.59;5024254;28;20056;-52
2022/04/15 09:10:40;;;;;;;9.15;6.97;;;;;;;18.15;46.54;94525.44;5031795;28;20848;-47
2022/04/15 09:13:19;;;;;;;9.70;6.50;;;;;;;19.04;44.72;94523.44;5032403;28;20106;-51
2022/04/15 09:15:47;;;;;;;9.53;7.07;;;;;;;17.64;47.79;94533.88;5030321;28;21578;-50
2022/04/15 09:18:36;;;;;;;10.77;7.13;;;;;;;17.38;48.58;94525.56;5031879;28;20053;-46
2022/04/15 09:21:24;;;;;;;9.77;6.57;;;;;;;17.59;47.72;94529.66;5032235;28;20052;-47
2022/04/15 09:23:55;;;;;;;7.72;5.85;;;;;;;18.39;44.40;94531.34;5031418;28;21636;-46
2022/04/15 09:26:24;;;;;;;9.70;5.95;;;;;;;17.66;44.44;94523.84;5031707;28;20410;-48
2022/04/15 09:28:53;;;;;;;8.47;5.67;;;;;;;17.56;45.46;94533.31;5031977;28;20046;-46
2022/04/15 09:31:22;;;;;;;7.70;5.50;;;;;;;18.98;43.17;94533.59;5031704;28;20041;-50
2022/04/15 09:34:00;;;;;;;7.75;5.15;;;;;;;19.85;41.51;94532.56;5029967;28;20047;-52
2022/04/15 09:36:32;;;;;;;7.78;5.18;;;;;;;20.94;38.07;94530.25;5028592;28;20050;-48
2022/04/15 09:39:14;;;;;;;9.18;5.80;;;;;;;18.08;43.93;94539.56;5012207;28;20037;-47
2022/04/15 09:41:49;;;;;;;7.77;5.00;;;;;;;18.86;42.62;94540.81;5010152;28;20749;-51
2022/04/15 09:44:16;;;;;;;8.57;5.32;;;;;;;19.12;41.84;94536.63;5011495;28;20056;-47
2022/04/15 09:46:46;;;;;;;7.90;5.53;;;;;;;18.12;43.27;94538.22;5012175;28;20038;-48
2022/04/15 09:49:13;;;;;;;7.90;5.22;;;;;;;17.03;45.85;94533.78;5011426;28;20053;-50
2022/04/15 09:51:45;;;;;;;6.40;4.60;;;;;;;18.79;41.75;94535.47;5011821;28;20038;-46
2022/04/15 09:54:40;;;;;;;7.10;4.47;;;;;;;20.82;36.97;94522.84;5011334;28;20049;-50
2022/04/15 09:57:09;;;;;;;6.60;4.50;;;;;;;21.13;36.07;94530.22;5011297;28;20056;-49
2022/04/15 09:59:39;;;;;;;7.38;4.43;;;;;;;20.55;37.45;94532.00;5010529;28;20214;-48
2022/04/15 10:02:11;;;;;;;8.05;5.35;;;;;;;19.24;40.47;94526.63;5010492;28;20045;-51
2022/04/15 10:04:41;;;;;;;7.32;5.28;;;;;;;18.15;41.23;94526.22;5010860;28;21720;-48
2022/04/15 10:07:08;;;;;;;8.27;5.47;;;;;;;17.05;43.50;94541.66;5015511;28;20479;-48
2022/04/15 10:09:41;;;;;;;6.53;4.97;;;;;;;18.58;40.75;94526.69;5030455;28;20042;-49
2022/04/15 10:12:09;;;;;;;7.60;4.93;;;;;;;18.79;39.76;94530.69;5031454;28;20044;-50
2022/04/15 10:14:38;;;;;;;7.28;5.03;;;;;;;19.65;37.80;94527.38;5031065;28;20060;-48
2022/04/15 10:17:05;;;;;;;6.97;4.28;;;;;;;19.81;37.19;94525.59;5031627;28;20053;-53
2022/04/15 10:19:33;;;;;;;6.63;4.53;;;;;;;20.17;36.62;94526.88;5030927;28;20049;-50
2022/04/15 10:22:01;;;;;;;7.03;4.70;;;;;;;19.58;37.78;94526.88;5031285;28;20034;-46
2022/04/15 10:24:29;;;;;;;6.30;4.22;;;;;;;18.90;38.54;94536.66;5030734;28;20049;-49
2022/04/15 10:26:59;;;;;;;6.63;4.50;;;;;;;18.44;38.74;94524.44;5030913;28;20041;-47
2022/04/15 10:29:26;;;;;;;6.13;4.22;;;;;;;18.09;40.01;94528.00;5030390;28;20056;-54
2022/04/15 10:31:53;;;;;;;6.27;4.50;;;;;;;16.72;42.09;94531.50;5031280;28;20043;-47
2022/04/15 10:34:21;;;;;;;6.95;4.53;;;;;;;16.99;41.78;94530.34;5030334;28;20041;-52
2022/04/15 10:36:47;;;;;;;6.63;4.25;;;;;;;17.43;40.09;94529.78;5029549;28;20041;-54
2022/04/15 10:39:22;;;;;;;5.78;4.18;;;;;;;18.62;37.41;94527.34;5030323;28;20041;-49
2022/04/15 10:41:53;;;;;;;6.25;4.22;;;;;;;19.15;36.61;94527.34;5031050;28;20500;-46
2022/04/15 10:44:27;;;;;;;7.13;4.40;;;;;;;20.04;34.61;94529.78;5030471;28;20417;-52
2022/04/15 10:46:58;;;;;;;6.93;4.40;;;;;;;21.14;32.37;94524.16;5030839;28;20401;-50
2022/04/15 10:49:30;;;;;;;5.70;3.90;;;;;;;22.19;31.65;94525.50;5028995;28;20518;-51
2022/04/15 10:51:59;;;;;;;6.38;4.00;;;;;;;23.59;29.21;94520.16;5029120;28;20045;-49
2022/04/15 10:54:35;;;;;;;5.82;4.40;;;;;;;21.83;30.91;94520.91;5028726;28;20118;-51
2022/04/15 10:57:14;;;;;;;6.53;3.90;;;;;;;21.43;32.27;94525.63;5026689;28;20498;-52
2022/04/15 11:02:48;;;;;;;7.38;4.70;;;;;;;20.21;34.90;94528.28;5010636;28;20398;-47
2022/04/15 11:06:02;;;;;;;6.68;4.80;;;;;;;20.86;34.77;94519.88;5010494;28;20050;-51
2022/04/15 11:08:50;;;;;;;7.38;5.10;;;;;;;18.68;37.22;94522.75;5023427;28;20649;-54
2022/04/15 11:11:18;;;;;;;7.90;4.60;;;;;;;19.47;36.29;94525.31;5030091;28;20118;-53
2022/04/15 11:13:48;;;;;;;6.30;4.22;;;;;;;20.40;35.10;94525.47;5030205;28;20037;-49
2022/04/15 11:16:16;;;;;;;7.15;4.78;;;;;;;19.74;35.65;94519.09;5030047;28;20049;-52
2022/04/15 11:18:50;;;;;;;6.93;4.45;;;;;;;19.51;36.15;94520.38;5030282;28;20104;-48
2022/04/15 11:21:37;;;;;;;7.28;5.07;;;;;;;19.74;35.71;94519.09;5028418;28;20046;-49
2022/04/15 11:24:06;;;;;;;7.43;4.90;;;;;;;19.72;35.87;94515.22;5030441;28;20056;-51
2022/04/15 11:26:34;;;;;;;8.45;5.38;;;;;;;19.47;36.18;94518.97;5029618;28;20156;-53
2022/04/15 11:29:04;;;;;;;7.63;5.10;;;;;;;18.75;38.09;94514.16;5029964;28;20491;-50
2022/04/15 11:31:36;;;;;;;8.55;5.50;;;;;;;18.23;39.50;94523.16;5029576;28;20482;-48
2022/04/15 11:34:11;;;;;;;8.48;4.93;;;;;;;19.62;37.32;94510.81;5029913;28;20049;-48
2022/04/15 11:36:40;;;;;;;8.80;5.40;;;;;;;18.87;38.35;94514.53;5029165;28;21633;-53